Weather observations for the past three days for
Virginia Tech Airport
Imperial (Metric)
Date Time (edt) Wind (mph) Vis. (mi.) Weather Sky Cond. Temperature (ºF) Relative Humidity Wind Chill (°F) Heat Index (°F) Pressure Precipitation (in)
Air Dwpt 6 hour altimeter (in) sea level (mb) 1 hr 3 hr 6 hr
Max. Min.
02 20:55 NW 7 10.00 Partly Cloudy SCT080 45.5 29.8 54% 42 29.99 0.0
02 20:35 NW 6 10.00 Partly Cloudy SCT080 46.6 29.3 51% 44 29.99 0.0
02 20:15 NW 9 10.00 Overcast OVC080 48 29.3 48% 44 29.98 0.0
02 19:55 NW 7 10.00 Overcast OVC070 49.1 29.3 58.1 49.1 47% 47 29.97 0.0
02 19:35 NW 10 G 18 10.00 Overcast OVC070 49.3 28.6 45% 45 29.97 0.0
02 19:15 NW 12 G 18 10.00 Mostly Cloudy SCT060 BKN070 BKN085 49.6 30 47% 46 29.96 0.0
02 18:55 NW 9 10.00 Overcast OVC080 51.3 29.7 44% 29.96 0.0
02 18:35 NW 10 G 20 10.00 Partly Cloudy SCT080 51.4 30 44% 29.96 0.0
02 18:15 NW 14 G 20 10.00 Partly Cloudy SCT080 52.9 30 42% 29.96 0.0
02 17:55 NW 15 G 22 10.00 Partly Cloudy SCT080 53.4 30.6 42% 29.95 0.0
02 17:35 NW 16 G 24 10.00 Mostly Cloudy BKN080 54.5 30.6 40% 29.94 0.0
02 17:15 NW 9 G 17 10.00 Partly Cloudy SCT070 54.3 30.6 40% 29.94 0.0
02 16:55 NW 12 10.00 Mostly Cloudy SCT060 BKN070 53.8 30.6 41% 29.93 0.0
02 16:35 N 14 G 22 10.00 Partly Cloudy SCT070 54.5 30 39% 29.94 0.0
02 16:15 NW 14 G 21 10.00 Partly Cloudy SCT070 54.9 30 39% 29.94 0.0
02 15:55 NW 17 G 23 10.00 Mostly Cloudy SCT060 BKN075 55.9 29.8 37% 29.94 0.0
02 15:35 NW 14 G 23 10.00 Mostly Cloudy BKN065 55.2 30.2 39% 29.93 0.0
02 15:15 NW 7 G 18 10.00 Partly Cloudy SCT065 55.6 30 38% 29.93 0.0
02 14:55 NW 14 G 21 10.00 Partly Cloudy SCT065 57.7 31.5 37% 29.94 0.0
02 14:35 NW 5 10.00 Partly Cloudy SCT060 57 30.6 37% 29.94 0.0
02 14:15 NW 8 G 16 10.00 Partly Cloudy SCT060 56.1 30.9 38% 29.94 0.0
02 13:55 W 7 G 23 10.00 Fair CLR 55 30 55.6 43.9 38% 29.95 0.0
02 13:35 NW 6 G 18 10.00 Fair CLR 54 29.7 39% 29.96 0.0
02 13:15 NW 9 10.00 Fair CLR 53.6 31.3 43% 29.97 0.0
02 12:55 NW 5 G 17 10.00 Fair CLR 53.2 31.1 43% 29.97 0.0
02 12:35 NW 5 10.00 Fair CLR 52.9 30.4 42% 29.98 0.0
02 12:15 NW 9 10.00 Fair CLR 53.1 30 41% 29.99 0.0
02 11:55 NW 6 10.00 Fair CLR 51.6 29.8 43% 29.99 0.0
02 11:35 NW 6 10.00 Fair CLR 49.8 29.5 46% 48 29.99 0.0
02 11:15 NW 7 10.00 Fair CLR 49.1 28.9 46% 47 29.99 0.0
02 10:55 NW 9 10.00 Fair CLR 48.2 29.7 49% 45 29.99 0.0
02 10:35 NW 6 10.00 Fair CLR 47.3 29.7 50% 45 29.99 0.0
02 10:15 NW 8 10.00 Fair CLR 46.8 29.8 52% 43 30 0.0
02 09:55 NW 10 10.00 Fair CLR 46.6 30.9 55% 42 30 0.0
02 09:35 NW 5 10.00 Fair CLR 45.7 30.6 56% 44 30.01 0.0
02 09:15 NW 8 10.00 Fair CLR 45.3 30.2 56% 42 29.99 0.0
02 08:55 NW 9 10.00 Fair CLR 45 30.4 57% 41 30 0.0
02 08:35 NW 6 10.00 Fair CLR 44.6 31.3 60% 42 29.99 0.0
02 08:15 NW 6 10.00 Fair CLR 44.2 30.4 58% 41 29.99 0.0
02 07:55 NW 6 10.00 Fair CLR 43.9 31.6 49.1 42.1 62% 41 29.99 0.0
02 07:35 NW 7 10.00 Fair CLR 43.9 31.6 62% 40 29.99 0.0
02 07:15 NW 10 10.00 Fair CLR 43.7 31.8 63% 39 29.98 0.0
02 06:55 NW 3 10.00 Fair CLR 43 32.4 66% 29.98 0.0
02 06:35 Calm 10.00 Fair CLR 43.2 32 65% 29.99 0.0
02 06:15 Calm 10.00 Fair CLR 43.9 31.8 63% 29.99 0.0
02 05:55 NW 3 10.00 Fair CLR 44.6 31.1 59% 29.99 0.0
02 05:35 NW 8 10.00 Fair CLR 45.7 30.6 56% 42 29.98 0.0
02 05:15 NW 7 10.00 Partly Cloudy SCT055 45.5 32 59% 42 29.98 0.0
02 04:55 NW 6 10.00 Overcast OVC055 45.5 32.5 61% 43 29.99 0.0
02 04:35 Calm 10.00 Overcast OVC055 45.5 33.3 62% 29.99 0.0
02 04:15 NW 5 10.00 Mostly Cloudy BKN055 46.6 32.7 59% 45 29.99 0.0
02 03:55 NW 6 10.00 Mostly Cloudy SCT039 SCT050 BKN065 46.6 33.3 60% 44 29.98 0.0
02 03:35 NW 7 10.00 Mostly Cloudy SCT028 SCT035 BKN050 47.5 36.9 67% 45 29.97 0.0
02 03:15 NW 7 10.00 Mostly Cloudy BKN030 BKN038 BKN070 48 38.5 70% 45 29.97 0.0
02 02:55 NW 5 10.00 Overcast BKN034 OVC050 48.4 38.5 69% 47 29.98 0.0
02 02:35 NW 3 10.00 Overcast OVC034 48.6 38.8 69% 29.98 0.0
02 02:15 Calm 10.00 Overcast BKN034 OVC049 48.2 38.7 70% 29.99 0.0
02 01:55 Calm 10.00 Partly Cloudy SCT049 SCT070 48.7 38.3 60.3 48.7 67% 29.99 0.0
02 01:35 NW 5 10.00 Fair CLR 49.1 38.3 66% 48 29.98 0.0
02 01:15 N 6 10.00 Fair CLR 49.6 38.8 67% 48 29.99 0.0
02 00:55 NW 7 10.00 Mostly Cloudy SCT034 SCT060 BKN070 50.5 38.5 63% 29.98 0.0
02 00:35 Calm 10.00 Overcast SCT036 BKN060 OVC070 50.5 40.6 69% 29.99 0.0
02 00:15 Calm 10.00 Overcast SCT034 SCT044 OVC070 51.1 40.6 68% 29.99 0.0
01 23:55 Calm 10.00 Overcast SCT034 BKN070 OVC085 51.8 41.2 67% 29.98 0.0
01 23:35 Calm 10.00 Overcast OVC070 52.2 41.7 68% 29.98 0.0
01 23:15 NW 5 10.00 Mostly Cloudy BKN070 52.9 41.4 65% 29.97 0.0
01 22:55 NW 8 10.00 Partly Cloudy SCT070 53.6 41 63% 29.97 0.0
01 22:35 NW 9 10.00 Mostly Cloudy BKN070 54.3 40.5 60% 29.96 0.0
01 22:15 NW 13 G 20 10.00 Mostly Cloudy BKN070 BKN080 55.6 39.4 55% 29.95 0.0
01 21:55 NW 12 10.00 Mostly Cloudy BKN085 57.2 38.1 49% 29.93 0.0
01 21:35 NW 6 10.00 Mostly Cloudy BKN085 58.3 38.1 47% 29.92 0.0
01 21:15 Calm 10.00 Partly Cloudy SCT085 57.7 41.4 55% 29.91 0.0
01 20:55 S 3 10.00 Mostly Cloudy BKN085 58.5 41.2 53% 29.9 0.0
01 20:35 S 5 10.00 Mostly Cloudy BKN095 59 41 51% 29.89 0.0
01 20:15 S 5 10.00 Partly Cloudy SCT095 59.7 40.5 49% 29.88 0.0
01 19:55 SW 5 10.00 Overcast OVC095 60.3 41.2 65.8 60.3 50% 29.87 0.0
01 19:35 S 5 10.00 Mostly Cloudy BKN095 61.2 41.2 48% 29.87 0.0
01 19:15 S 6 10.00 Partly Cloudy SCT095 62.1 41 46% 29.87 0.0
01 18:55 S 5 10.00 Partly Cloudy SCT090 63.5 41 44% 29.87 0.0
01 18:35 S 8 10.00 Partly Cloudy SCT090 63.9 40.5 42% 29.87 0.0
01 18:15 SW 6 10.00 Partly Cloudy SCT100 65.3 40.3 40% 29.87 0.0
01 17:55 SW 5 10.00 Partly Cloudy SCT100 64.6 39.9 41% 29.87 0.0
01 17:35 SW 6 G 16 10.00 Partly Cloudy SCT070 64.9 39.9 40% 29.87 0.0
01 17:15 SW 7 10.00 Fair CLR 65.3 40.3 40% 29.88 0.0
01 16:55 S 9 10.00 Fair CLR 64.8 39.7 40% 29.88 0.0
01 16:35 SW 5 10.00 Fair CLR 65.5 39.6 39% 29.88 0.0
01 16:15 S 7 10.00 Partly Cloudy SCT070 SCT080 65.8 38.7 37% 29.89 0.0
01 15:55 W 8 10.00 Partly Cloudy SCT070 64.9 37.4 36% 29.89 0.0
01 15:35 S 8 10.00 Mostly Cloudy BKN070 BKN080 64.6 37.8 37% 29.91 0.0
01 15:15 S 9 10.00 Partly Cloudy SCT070 63.7 36 36% 29.92 0.0
01 14:55 S 6 G 18 10.00 Fair CLR 63 34.5 35% 29.93 0.0
01 14:35 S 3 10.00 Fair CLR 62.4 32.5 33% 29.93 0.0
01 14:15 S 9 G 16 10.00 Fair CLR 61.5 32.7 34% 29.94 0.0
01 13:55 S 8 10.00 Fair CLR 61.7 35.2 61.9 44.4 37% 29.96 0.0
01 13:35 S 10 10.00 Fair CLR 61.7 36.5 39% 29.96 0.0
01 13:15 SE 7 10.00 Fair CLR 59.7 36 41% 29.97 0.0
01 12:55 S 6 10.00 Fair CLR 58.8 33.3 38% 29.98 0.0
01 12:35 S 7 10.00 Fair CLR 58.1 33.1 39% 29.99 0.0
01 12:15 S 7 10.00 Fair CLR 57 33.3 41% 29.99 0.0
01 11:55 Calm 10.00 Fair CLR 56.1 34.5 44% 30 0.0
01 11:35 S 7 10.00 Fair CLR 55.4 36 48% 30.01 0.0
01 11:15 E 5 10.00 Fair CLR 53.6 36.3 52% 30.01 0.0
01 10:55 S 7 10.00 Fair CLR 52.9 36.7 54% 30.01 0.0
01 10:35 SE 7 10.00 Fair CLR 52 36.3 55% 30.02 0.0
01 10:15 E 6 10.00 Fair CLR 50.7 36.5 58% 30.02 0.0
01 09:55 E 8 10.00 Fair CLR 49.8 35.4 58% 47 30.02 0.0
01 09:35 E 3 10.00 Fair CLR 49.5 36.9 62% 30.03 0.0
01 09:15 Calm 10.00 Fair CLR 47.5 36.7 66% 30.03 0.0
01 08:55 Calm 10.00 Fair CLR 46.9 37.6 70% 30.03 0.0
01 08:35 Calm 10.00 Fair CLR 46.2 38.7 75% 30.02 0.0
01 08:15 Calm 10.00 Fair CLR 45 37.8 76% 30.03 0.0
01 07:55 Calm 10.00 Fair CLR 44.6 38.5 45 39.4 79% 30.02 0.0
01 07:35 Calm 10.00 Fair CLR 41.9 38.3 87% 30.02 0.0
01 07:15 Calm 10.00 Fair CLR 40.5 37.4 89% 30.02 0.0
01 06:55 Calm 10.00 Fair CLR 39.6 37.4 92% 30.01 0.0
01 06:35 Calm 10.00 Fair CLR 40.1 37.4 90% 30.01 0.0
01 06:15 Calm 10.00 Fair CLR 41 37.4 87% 30 0.0
01 05:55 Calm 10.00 Fair CLR 41.9 37.2 84% 30 0.0
01 05:35 Calm 10.00 Fair CLR 42.8 36.5 79% 30 0.0
01 05:15 Calm 10.00 Fair CLR 43 36.9 79% 30 0.0
01 04:55 Calm 10.00 Fair CLR 44.2 36.5 74% 30 0.0
01 04:35 N 3 10.00 Fair CLR 44.2 36.9 75% 30 0.0
01 04:15 Calm 10.00 Fair CLR 44.6 36 72% 30 0.0
01 03:55 Calm 10.00 Fair CLR 44.6 35.8 71% 30 0.0
01 03:35 NW 6 10.00 Fair CLR 45 35.4 69% 42 29.99 0.0
01 03:15 NW 3 10.00 Fair CLR 43.7 36.5 76% 30 0.0
01 02:55 NW 3 10.00 Fair CLR 42.8 36.7 79% 30 0.0
01 02:35 Calm 10.00 Fair CLR 41.9 35.1 77% 30.01 0.0
01 02:15 Calm 10.00 Fair CLR 41.2 35.6 81% 30.01 0.0
01 01:55 Calm 10.00 Fair CLR 40.5 35.2 55 40.3 82% 30.01 0.0
01 01:35 Calm 10.00 Fair CLR 40.5 34.5 79% 30.02 0.0
01 01:15 Calm 10.00 Fair CLR 41.2 34.9 78% 30.03 0.0
01 00:55 Calm 10.00 Fair CLR 41 34.9 79% 30.03 0.0
01 00:35 Calm 10.00 Fair CLR 41.9 34.3 75% 30.02 0.0
01 00:15 Calm 10.00 Fair CLR 42.8 33.6 70% 30.02 0.0
30 23:55 Calm 10.00 Fair CLR 44.6 33.4 65% 30.03 0.0
30 23:35 NW 5 10.00 Fair CLR 45.3 32.9 62% 43 30.02 0.0
30 23:15 NW 7 10.00 Fair CLR 45.5 34.7 66% 42 30.03 0.0
30 22:55 Calm 10.00 Fair CLR 46.2 34.2 63% 30.03 0.0
30 22:35 Calm 10.00 Fair CLR 47.7 34.2 60% 30.02 0.0
30 22:15 NW 7 10.00 Fair CLR 48.4 34.2 58% 46 30.01 0.0
30 21:55 NW 8 10.00 Fair CLR 49.1 34.9 58% 46 30.01 0.0
30 21:35 NW 5 10.00 Fair CLR 49.6 35.1 57% 48 29.99 0.0
30 21:15 NW 7 10.00 Fair CLR 50.7 35.2 56% 29.98 0.0
30 20:55 NW 7 10.00 Fair CLR 51.8 35.1 53% 29.97 0.0
30 20:35 NW 9 G 16 10.00 Fair CLR 53.6 34.2 48% 29.96 0.0
30 20:15 NW 13 10.00 Fair CLR 54.7 34 46% 29.95 0.0
30 19:55 NW 8 10.00 Fair CLR 55 34.3 61.7 55 46% 29.94 0.0
30 19:35 NW 10 10.00 Fair CLR 56.3 33.8 43% 29.93 0.0
30 19:15 NW 8 10.00 Fair CLR 58.1 32.7 38% 29.92 0.0
30 18:55 NW 8 G 18 10.00 Fair CLR 58.6 33.1 38% 29.92 0.0
30 18:35 NW 5 10.00 Fair CLR 59.7 33.8 38% 29.92 0.0
30 18:15 NW 8 10.00 Fair CLR 59.9 33.8 38% 29.92 0.0
30 17:55 NW 13 G 18 10.00 Fair CLR 60.4 34.3 38% 29.92 0.0
30 17:35 NW 14 G 20 10.00 Partly Cloudy SCT065 61 33.6 36% 29.91 0.0
30 17:15 NW 14 G 22 10.00 Partly Cloudy SCT065 60.8 35.2 39% 29.91 0.0
30 16:55 NW 10 G 18 10.00 Partly Cloudy SCT065 61 34.7 37% 29.91 0.0
30 16:35 NW 7 G 17 10.00 Partly Cloudy SCT065 60.6 33.8 37% 29.91 0.0
30 16:15 NW 13 G 22 10.00 Fair CLR 61.3 35.4 38% 29.91 0.0
30 15:55 NW 15 G 26 10.00 Fair CLR 61.3 34.9 37% 29.91 0.0
30 15:35 NW 9 G 17 10.00 Fair CLR 60.8 34.9 38% 29.91 0.0
30 15:15 NW 12 G 20 10.00 Fair CLR 60.6 34.9 38% 29.91 0.0
30 14:55 NW 12 G 20 10.00 Fair CLR 60.3 35.4 40% 29.91 0.0
30 14:35 NW 15 G 24 10.00 Fair CLR 60.3 36.1 41% 29.91 0.0
30 14:15 NW 16 G 23 10.00 Fair CLR 60.4 37.8 43% 29.91 0.0
30 13:55 NW 9 G 18 10.00 Fair CLR 60.3 37.2 60.8 52.2 42% 29.91 0.0
30 13:35 NW 8 G 22 10.00 Fair CLR 59.4 36.5 43% 29.91 0.0
30 13:15 NW 16 G 26 10.00 Fair CLR 59.9 39.7 47% 29.92 0.0
30 12:55 NW 10 G 23 10.00 Fair CLR 59.7 40.8 50% 29.92 0.0
30 12:35 NW 14 G 24 10.00 Partly Cloudy SCT042 SCT050 58.5 39.6 50% 29.92 0.0
30 12:15 W 8 G 18 10.00 Mostly Cloudy BKN042 BKN050 57.9 41.5 55% 29.92 0.0
30 11:55 NW 10 G 18 10.00 Mostly Cloudy BKN038 55.9 41 57% 29.93 0.0
30 11:35 NW 9 G 17 10.00 Partly Cloudy SCT036 SCT042 56.5 42.6 60% 29.93 0.0
30 11:15 NW 10 G 16 10.00 Mostly Cloudy SCT032 BKN039 BKN045 55.8 43 62% 29.94 0.0
30 10:55 W 5 10.00 Mostly Cloudy SCT032 SCT039 BKN045 53.8 43 67% 29.94 0.0
30 10:35 NW 10 10.00 Mostly Cloudy SCT029 BKN039 BKN047 55.2 43.5 65% 29.94 0.0
30 10:15 NW 8 10.00 Mostly Cloudy SCT029 BKN039 53.2 42.4 67% 29.94 0.0
30 09:55 NW 12 G 23 10.00 Partly Cloudy SCT029 SCT034 53.8 42.8 67% 29.94 0.0
30 09:35 NW 9 G 16 10.00 Partly Cloudy SCT120 54.9 43.9 67% 29.92 0.0
30 09:15 NW 7 10.00 Partly Cloudy SCT038 SCT044 54.3 44.4 69% 29.92 0.0
30 08:55 NW 6 10.00 Mostly Cloudy SCT038 BKN046 53.2 44.1 71% 29.93 0.0
30 08:35 NW 6 10.00 Mostly Cloudy BKN046 BKN120 52.2 44.8 76% 29.93 0.0
30 08:15 W 7 10.00 Mostly Cloudy SCT029 SCT036 BKN042 52.2 44.6 76% 29.93 0.0
30 07:55 NW 7 10.00 Overcast SCT027 BKN033 OVC040 52.5 44.8 53.8 52 75% 29.92 0.0
30 07:35 NW 5 10.00 Overcast OVC031 52.7 45.7 77% 29.91 0.0
30 07:15 NW 3 10.00 Overcast OVC031 52.3 46.4 80% 29.89 0.0
30 06:55 Calm 10.00 Overcast OVC029 52.2 46.6 81% 29.87 0.0
30 06:35 Calm 10.00 Mostly Cloudy BKN029 52.5 45.7 78% 29.87 0.0
30 06:15 W 3 10.00 Overcast BKN029 OVC035 53.1 45.9 77% 29.84 0.0
30 05:55 NW 5 10.00 Overcast OVC029 53.6 46.4 77% 29.85 0.0
30 05:35 NW 7 10.00 Overcast OVC027 53.6 46.9 78% 29.84 0.0
30 05:15 NW 3 10.00 Overcast SCT023 OVC031 53.6 48.2 82% 29.84 0.0
30 04:55 NW 7 10.00 Overcast BKN031 OVC040 53.8 48.2 82% 29.85 0.0
30 04:35 NW 6 10.00 Mostly Cloudy SCT023 SCT034 BKN040 53.6 47.8 81% 29.87 0.0
30 04:15 NW 9 G 16 10.00 Mostly Cloudy BKN023 53.6 48 82% 29.87 0.0
30 03:55 W 6 10.00 Partly Cloudy SCT020 SCT027 53.4 48.2 83% 29.87 0.0
30 03:35 W 3 10.00 Overcast OVC020 53.6 48.6 83% 29.87 0.0
30 03:15 NW 5 10.00 Overcast OVC020 53.6 48.6 83% 29.87 0.0
30 02:55 W 7 10.00 Mostly Cloudy BKN022 53.6 48.2 82% 29.88 0.0
30 02:35 NW 6 10.00 Mostly Cloudy BKN022 53.2 47.8 82% 29.89 0.0
30 02:15 Calm 10.00 Partly Cloudy SCT024 52.7 47.7 83% 29.9 0.0
30 01:55 Calm 10.00 Fair CLR 52.3 47.5 63 52.3 84% 29.9 0.0
30 01:35 NW 3 10.00 Fair CLR 53.6 47.3 79% 29.9 0.0
30 01:15 NW 5 10.00 Fair CLR 54.5 47.3 77% 29.91 0.0
30 00:55 NW 6 10.00 Fair CLR 55.4 47.3 74% 29.91 0.0
30 00:35 Calm 10.00 Fair CLR 55.2 47.7 76% 29.91 0.0
30 00:15 W 3 10.00 Fair CLR 55.9 48.4 76% 29.91 0.0
29 23:55 W 3 10.00 Partly Cloudy SCT030 SCT036 SCT043 57.6 48.6 72% 29.91 0.0
29 23:35 NW 6 10.00 Mostly Cloudy SCT023 SCT030 BKN036 58.5 51.6 78% 29.9 0.0
29 23:15 NW 5 10.00 Mostly Cloudy SCT023 SCT030 BKN049 58.5 53.1 82% 29.9 0.0
29 22:55 W 3 10.00 Mostly Cloudy SCT028 BKN049 59.4 52.9 79% 29.91 0.0
29 22:35 W 9 10.00 Overcast BKN028 BKN036 OVC043 60.4 52.7 76% 29.9 0.0
29 22:15 NW 6 10.00 Overcast BKN042 OVC048 60.4 53.4 78% 29.9 0.0
29 21:55 NW 7 10.00 Mostly Cloudy SCT043 BKN048 BKN050 60.3 54 80% 29.9 0.0
29 21:35 NW 3 10.00 Mostly Cloudy SCT041 SCT048 BKN080 60.1 54.5 82% 29.89 0.0
29 21:15 NW 6 10.00 Partly Cloudy SCT030 SCT044 SCT055 60.3 54.7 82% 29.88 0.0
Date Time (edt) Wind (mph) Vis. (mi.) Weather Sky Cond. Air Dwpt Max. Min. Relative Humidity Wind Chill (°F) Heat Index (°F) altimeter (in) sea level (mb) 1 hr 3 hr 6 hr
6 hour
Temperature (ºF) Pressure Precipitation (in)